createdAt,value
2017-08-13T00:00:21.562Z,18.41
2017-08-13T00:02:50.762Z,18.44
2017-08-13T00:05:20.607Z,18.38
2017-08-13T00:07:49.663Z,18.16
2017-08-13T00:10:19.514Z,18.23
2017-08-13T00:12:48.584Z,18.28
2017-08-13T00:15:17.638Z,18.29
2017-08-13T00:17:46.727Z,18.33
2017-08-13T00:20:15.809Z,18.33
2017-08-13T00:22:44.896Z,18.36
2017-08-13T00:25:14.012Z,18.29
2017-08-13T00:27:43.070Z,18.29
2017-08-13T00:30:12.178Z,18.25
2017-08-13T00:32:41.208Z,18.24
2017-08-13T00:35:10.347Z,18.19
2017-08-13T00:37:40.255Z,18.19
2017-08-13T00:40:09.352Z,18.19
2017-08-13T00:42:39.167Z,18.23
2017-08-13T00:45:08.266Z,18.17
2017-08-13T00:47:37.336Z,18.20
2017-08-13T00:50:07.240Z,18.20
2017-08-13T00:52:37.520Z,18.19
2017-08-13T00:55:06.643Z,18.09
2017-08-13T00:57:35.704Z,18.14
2017-08-13T01:00:04.768Z,18.10
2017-08-13T01:02:33.854Z,18.13
2017-08-13T01:05:02.930Z,18.15
2017-08-13T01:07:31.980Z,18.16
2017-08-13T01:10:01.067Z,18.16
2017-08-13T01:12:30.136Z,18.08
2017-08-13T01:14:59.992Z,18.12
2017-08-13T01:17:29.043Z,18.13
2017-08-13T01:19:58.884Z,18.10
2017-08-13T01:22:27.971Z,18.03
2017-08-13T01:24:57.036Z,18.01
2017-08-13T01:27:26.131Z,18.02
2017-08-13T01:29:55.203Z,17.98
2017-08-13T01:32:24.273Z,18.01
2017-08-13T01:34:53.388Z,18.00
2017-08-13T01:37:22.444Z,17.99
2017-08-13T01:39:51.539Z,17.96
2017-08-13T01:42:20.628Z,17.95
2017-08-13T01:44:50.447Z,17.95
2017-08-13T01:47:19.511Z,17.93
2017-08-13T01:49:48.598Z,17.99
2017-08-13T01:52:17.673Z,17.95
2017-08-13T01:54:46.727Z,17.91
2017-08-13T01:57:15.774Z,17.92
2017-08-13T01:59:44.868Z,17.95
2017-08-13T02:02:13.939Z,17.97
2017-08-13T02:04:43.032Z,17.97
2017-08-13T02:07:12.113Z,17.99
2017-08-13T02:09:41.200Z,18.00
2017-08-13T02:12:10.284Z,18.03
2017-08-13T02:14:39.347Z,17.97
2017-08-13T02:17:09.232Z,17.99
2017-08-13T02:19:38.298Z,17.93
2017-08-13T02:22:07.371Z,17.91
2017-08-13T02:24:36.452Z,17.92
2017-08-13T02:27:05.660Z,17.95
2017-08-13T02:29:34.693Z,17.94
2017-08-13T02:32:03.818Z,17.97
2017-08-13T02:34:32.864Z,17.99
2017-08-13T02:37:02.708Z,17.96
2017-08-13T02:39:31.783Z,17.96
2017-08-13T02:42:00.841Z,17.96
2017-08-13T02:44:30.056Z,17.94
2017-08-13T02:46:59.084Z,17.90
2017-08-13T02:49:28.153Z,17.87
2017-08-13T02:51:57.987Z,17.90
2017-08-13T02:54:27.075Z,17.91
2017-08-13T02:56:56.131Z,17.93
2017-08-13T02:59:25.185Z,17.96
2017-08-13T03:01:54.279Z,17.99
2017-08-13T03:04:23.350Z,17.98
2017-08-13T03:06:52.419Z,17.96
2017-08-13T03:09:21.479Z,17.93
2017-08-13T03:11:50.559Z,17.88
2017-08-13T03:14:19.623Z,17.86
2017-08-13T03:16:49.471Z,17.90
2017-08-13T03:19:18.555Z,17.91
2017-08-13T03:21:47.604Z,17.88
2017-08-13T03:24:16.684Z,17.91
2017-08-13T03:26:45.776Z,17.92
2017-08-13T03:29:14.851Z,17.91
2017-08-13T03:31:43.914Z,17.92
2017-08-13T03:34:12.960Z,17.86
2017-08-13T03:36:42.267Z,17.72
2017-08-13T03:39:11.352Z,17.74
2017-08-13T03:41:40.392Z,17.74
2017-08-13T03:44:10.276Z,17.76
2017-08-13T03:46:39.319Z,17.76
2017-08-13T03:49:08.457Z,17.75
2017-08-13T03:51:37.486Z,17.75
2017-08-13T03:54:07.320Z,17.73
2017-08-13T03:56:36.412Z,17.69
2017-08-13T03:59:05.523Z,17.61
2017-08-13T04:01:34.580Z,17.59
2017-08-13T04:04:03.668Z,17.59
2017-08-13T04:06:32.737Z,17.59
2017-08-13T04:09:01.834Z,17.58
2017-08-13T04:11:30.910Z,17.56
2017-08-13T04:13:59.985Z,17.53
2017-08-13T04:16:29.836Z,17.47
2017-08-13T04:18:58.899Z,17.44
2017-08-13T04:21:27.948Z,17.46
2017-08-13T04:23:57.043Z,17.49
2017-08-13T04:26:26.102Z,17.52
2017-08-13T04:28:55.156Z,17.54
2017-08-13T04:31:25.013Z,17.55
2017-08-13T04:33:54.069Z,17.54
2017-08-13T04:36:23.896Z,17.53
2017-08-13T04:38:52.968Z,17.51
2017-08-13T04:41:22.803Z,17.53
2017-08-13T04:43:51.856Z,17.51
2017-08-13T04:46:20.937Z,17.50
2017-08-13T04:48:49.991Z,17.54
2017-08-13T04:51:19.083Z,17.55
2017-08-13T04:53:48.139Z,17.57
2017-08-13T04:56:17.228Z,17.58
2017-08-13T04:58:46.312Z,17.58
2017-08-13T05:01:15.398Z,17.59
2017-08-13T05:03:44.472Z,17.64
2017-08-13T05:06:13.547Z,17.70
2017-08-13T05:08:42.603Z,17.73
2017-08-13T05:11:11.671Z,17.72
2017-08-13T05:13:40.741Z,17.70
2017-08-13T05:16:09.828Z,17.72
2017-08-13T05:18:38.876Z,17.76
2017-08-13T05:21:07.952Z,17.83
2017-08-13T05:23:37.019Z,17.83
2017-08-13T05:26:06.325Z,17.85
2017-08-13T05:28:35.409Z,17.86
2017-08-13T05:31:04.467Z,17.91
2017-08-13T05:33:33.544Z,17.99
2017-08-13T05:36:02.911Z,18.02
2017-08-13T05:38:32.741Z,18.04
2017-08-13T05:41:01.801Z,18.09
2017-08-13T05:43:30.859Z,18.11
2017-08-13T05:45:59.924Z,18.15
2017-08-13T05:48:28.993Z,18.17
2017-08-13T05:50:58.043Z,18.00
2017-08-13T05:53:27.128Z,18.03
2017-08-13T05:55:56.178Z,18.10
2017-08-13T05:58:26.002Z,18.18
2017-08-13T06:00:55.062Z,18.18
2017-08-13T06:03:24.139Z,18.24
2017-08-13T06:05:53.192Z,18.21
2017-08-13T06:08:22.260Z,18.24
2017-08-13T06:10:51.312Z,18.26
2017-08-13T06:13:20.390Z,18.25
2017-08-13T06:15:49.460Z,18.35
2017-08-13T06:18:18.527Z,18.41
2017-08-13T06:20:47.571Z,18.39
2017-08-13T06:23:16.627Z,18.43
2017-08-13T06:25:45.687Z,18.41
2017-08-13T06:28:14.726Z,18.41
2017-08-13T06:30:43.771Z,18.45
2017-08-13T06:33:12.850Z,18.48
2017-08-13T06:35:41.904Z,18.55
2017-08-13T06:38:10.964Z,18.58
2017-08-13T06:40:40.013Z,18.63
2017-08-13T06:43:09.096Z,18.67
2017-08-13T06:45:38.163Z,18.74
2017-08-13T06:48:07.208Z,18.74
2017-08-13T06:50:36.276Z,18.72
2017-08-13T06:53:05.524Z,18.75
2017-08-13T06:55:34.581Z,18.84
2017-08-13T06:58:03.635Z,18.95
2017-08-13T07:00:32.714Z,19.04
2017-08-13T07:03:01.748Z,19.02
2017-08-13T07:05:30.848Z,19.05
2017-08-13T07:07:59.899Z,19.08
2017-08-13T07:10:28.961Z,19.02
2017-08-13T07:12:58.028Z,19.18
2017-08-13T07:15:27.206Z,19.32
2017-08-13T07:17:56.261Z,19.47
2017-08-13T07:20:25.332Z,19.66
2017-08-13T07:22:54.416Z,19.42
2017-08-13T07:25:23.493Z,19.31
2017-08-13T07:27:52.565Z,19.24
2017-08-13T07:30:21.621Z,19.32
2017-08-13T07:32:50.694Z,19.40
2017-08-13T07:35:19.807Z,19.48
2017-08-13T07:37:48.903Z,19.66
2017-08-13T07:40:18.004Z,19.73
2017-08-13T07:42:47.056Z,19.78
2017-08-13T07:45:16.158Z,19.77
2017-08-13T07:47:45.231Z,19.77
2017-08-13T07:50:14.361Z,19.73
2017-08-13T07:52:43.435Z,19.73
2017-08-13T07:55:12.480Z,19.80
2017-08-13T07:57:41.555Z,19.90
2017-08-13T08:00:10.632Z,19.99
2017-08-13T08:02:39.672Z,20.01
2017-08-13T08:05:09.752Z,19.98
2017-08-13T08:07:38.812Z,20.13
2017-08-13T08:10:07.884Z,20.21
2017-08-13T08:12:36.928Z,20.30
2017-08-13T08:15:06.012Z,20.43
2017-08-13T08:17:35.087Z,20.39
2017-08-13T08:20:04.141Z,20.39
2017-08-13T08:22:33.204Z,20.36
2017-08-13T08:25:02.277Z,20.38
2017-08-13T08:27:31.323Z,20.39
2017-08-13T08:30:00.435Z,20.61
2017-08-13T08:32:29.493Z,20.74
2017-08-13T08:34:58.574Z,20.82
2017-08-13T08:37:27.621Z,20.92
2017-08-13T08:39:56.685Z,21.02
2017-08-13T08:42:25.743Z,21.04
2017-08-13T08:44:54.803Z,21.08
2017-08-13T08:47:23.881Z,21.15
2017-08-13T08:49:52.932Z,21.22
2017-08-13T08:52:22.258Z,21.16
2017-08-13T08:54:51.308Z,21.01
2017-08-13T08:57:20.363Z,20.74
2017-08-13T08:59:49.512Z,20.53
2017-08-13T09:02:18.565Z,20.45
2017-08-13T09:04:47.648Z,20.56
2017-08-13T09:07:16.739Z,20.82
2017-08-13T09:09:45.795Z,21.11
2017-08-13T09:12:14.887Z,21.20
2017-08-13T09:14:43.968Z,21.32
2017-08-13T09:17:13.004Z,21.14
2017-08-13T09:19:42.080Z,20.94
2017-08-13T09:22:11.256Z,20.72
2017-08-13T09:24:40.311Z,20.69
2017-08-13T09:27:10.110Z,20.71
2017-08-13T09:29:39.205Z,20.81
2017-08-13T09:32:08.308Z,20.92
2017-08-13T09:34:37.385Z,21.00
2017-08-13T09:37:06.436Z,21.21
2017-08-13T09:39:35.776Z,21.30
2017-08-13T09:42:04.867Z,21.44
2017-08-13T09:44:33.960Z,21.58
2017-08-13T09:47:03.024Z,21.60
2017-08-13T09:49:32.072Z,21.49
2017-08-13T09:52:01.135Z,21.56
2017-08-13T09:54:30.288Z,21.77
2017-08-13T09:56:59.355Z,21.92
2017-08-13T09:59:28.406Z,21.84
2017-08-13T10:01:57.484Z,21.86
2017-08-13T10:04:26.519Z,21.87
2017-08-13T10:06:55.600Z,21.96
2017-08-13T10:09:24.717Z,21.97
2017-08-13T10:11:53.772Z,22.10
2017-08-13T10:14:22.840Z,22.24
2017-08-13T10:16:52.659Z,22.51
2017-08-13T10:19:22.503Z,22.77
2017-08-13T10:21:51.564Z,22.82
2017-08-13T10:24:21.389Z,22.82
2017-08-13T10:26:50.448Z,22.87
2017-08-13T10:29:19.542Z,22.63
2017-08-13T10:31:48.612Z,22.80
2017-08-13T10:34:17.658Z,23.14
2017-08-13T10:36:47.484Z,23.26
2017-08-13T10:39:16.621Z,23.21
2017-08-13T10:41:45.664Z,23.00
2017-08-13T10:44:14.743Z,22.98
2017-08-13T10:46:43.803Z,23.09
2017-08-13T10:49:12.847Z,23.11
2017-08-13T10:51:42.700Z,23.05
2017-08-13T10:54:11.983Z,22.91
2017-08-13T10:56:41.024Z,22.77
2017-08-13T10:59:10.095Z,22.67
2017-08-13T11:01:39.181Z,22.47
2017-08-13T11:04:08.233Z,22.37
2017-08-13T11:06:38.090Z,22.27
2017-08-13T11:09:07.203Z,22.21
2017-08-13T11:11:36.224Z,22.10
2017-08-13T11:14:05.309Z,21.94
2017-08-13T11:16:34.336Z,21.95
2017-08-13T11:19:03.424Z,22.08
2017-08-13T11:21:33.255Z,22.13
2017-08-13T11:24:02.363Z,22.15
2017-08-13T11:26:31.400Z,22.27
2017-08-13T11:29:00.460Z,22.12
2017-08-13T11:31:29.562Z,22.24
2017-08-13T11:33:58.602Z,22.29
2017-08-13T11:36:28.420Z,22.30
2017-08-13T11:38:58.289Z,22.30
2017-08-13T11:41:27.319Z,22.27
2017-08-13T11:43:56.504Z,22.33
2017-08-13T11:46:25.567Z,22.52
2017-08-13T11:48:54.629Z,22.71
2017-08-13T11:51:24.487Z,22.93
2017-08-13T11:53:53.559Z,23.06
2017-08-13T11:56:22.620Z,23.12
2017-08-13T11:58:52.464Z,23.10
2017-08-13T12:01:21.511Z,22.80
2017-08-13T12:03:50.592Z,22.76
2017-08-13T12:06:19.631Z,22.71
2017-08-13T12:08:48.742Z,22.67
2017-08-13T12:11:17.814Z,22.60
2017-08-13T12:13:47.659Z,22.48
2017-08-13T12:16:16.731Z,22.36
2017-08-13T12:18:46.562Z,22.29
2017-08-13T12:21:15.652Z,22.19
2017-08-13T12:23:45.482Z,22.08
2017-08-13T12:26:14.533Z,21.85
2017-08-13T12:28:44.392Z,21.62
2017-08-13T12:31:13.433Z,21.51
2017-08-13T12:33:43.260Z,21.45
2017-08-13T12:36:13.187Z,21.40
2017-08-13T12:38:42.229Z,21.43
2017-08-13T12:41:11.484Z,21.56
2017-08-13T12:43:40.574Z,21.68
2017-08-13T12:46:10.435Z,21.79
2017-08-13T12:48:39.509Z,21.87
2017-08-13T12:51:09.473Z,22.08
2017-08-13T12:53:39.308Z,22.25
2017-08-13T12:56:09.759Z,22.37
2017-08-13T12:58:38.815Z,22.54
2017-08-13T13:01:08.767Z,22.64
2017-08-13T13:03:37.816Z,22.76
2017-08-13T13:06:06.952Z,22.70
2017-08-13T13:08:36.011Z,22.56
2017-08-13T13:11:06.047Z,22.49
2017-08-13T13:13:35.839Z,22.46
2017-08-13T13:16:04.946Z,22.47
2017-08-13T13:18:33.988Z,22.50
2017-08-13T13:21:03.204Z,22.46
2017-08-13T13:23:32.257Z,22.44
2017-08-13T13:26:01.320Z,22.42
2017-08-13T13:28:30.395Z,22.48
2017-08-13T13:30:59.478Z,22.50
2017-08-13T13:33:28.533Z,22.56
2017-08-13T13:35:57.621Z,22.65
2017-08-13T13:38:27.465Z,22.56
2017-08-13T13:40:58.011Z,22.62
2017-08-13T13:43:27.056Z,22.80
2017-08-13T13:45:56.885Z,22.81
2017-08-13T13:48:25.960Z,22.76
2017-08-13T13:50:55.922Z,22.60
2017-08-13T13:53:25.103Z,22.63
2017-08-13T13:55:54.149Z,22.64
2017-08-13T13:58:23.213Z,22.64
2017-08-13T14:00:52.277Z,22.70
2017-08-13T14:03:22.099Z,22.83
2017-08-13T14:05:51.159Z,22.90
2017-08-13T14:08:21.012Z,22.97
2017-08-13T14:10:50.066Z,22.93
2017-08-13T14:13:19.881Z,22.99
2017-08-13T14:15:49.724Z,22.97
2017-08-13T14:18:18.766Z,22.95
2017-08-13T14:20:47.820Z,23.03
2017-08-13T14:23:16.884Z,23.12
2017-08-13T14:25:46.826Z,23.15
2017-08-13T14:28:15.869Z,23.28
2017-08-13T14:30:44.934Z,23.41
2017-08-13T14:33:13.997Z,23.46
2017-08-13T14:35:43.043Z,23.36
2017-08-13T14:38:12.104Z,23.37
2017-08-13T14:40:41.190Z,23.21
2017-08-13T14:43:10.268Z,23.06
2017-08-13T14:45:40.091Z,23.00
2017-08-13T14:48:09.248Z,22.97
2017-08-13T14:50:38.341Z,22.90
2017-08-13T14:53:07.444Z,22.83
2017-08-13T14:55:36.490Z,22.79
2017-08-13T14:58:06.469Z,22.77
2017-08-13T15:00:35.492Z,22.74
2017-08-13T15:03:04.596Z,22.75
2017-08-13T15:05:34.733Z,22.74
2017-08-13T15:08:03.806Z,22.74
2017-08-13T15:10:32.851Z,22.71
2017-08-13T15:13:01.920Z,22.72
2017-08-13T15:15:30.973Z,22.74
2017-08-13T15:18:00.807Z,22.66
2017-08-13T15:20:29.875Z,22.72
2017-08-13T15:22:59.697Z,22.79
2017-08-13T15:25:28.797Z,22.85
2017-08-13T15:27:58.598Z,22.77
2017-08-13T15:30:28.435Z,22.68
2017-08-13T15:32:57.536Z,22.59
2017-08-13T15:35:26.572Z,22.46
2017-08-13T15:37:55.652Z,22.45
2017-08-13T15:40:25.515Z,22.49
2017-08-13T15:42:54.602Z,22.48
2017-08-13T15:45:24.484Z,22.49
2017-08-13T15:47:54.237Z,22.37
2017-08-13T15:50:23.603Z,22.19
2017-08-13T15:52:52.684Z,21.90
2017-08-13T15:55:21.735Z,21.68
2017-08-13T15:57:50.828Z,21.52
2017-08-13T16:00:19.895Z,21.47
2017-08-13T16:02:49.206Z,21.46
2017-08-13T16:05:18.280Z,21.45
2017-08-13T16:07:47.327Z,21.40
2017-08-13T16:10:16.429Z,21.28
2017-08-13T16:12:45.503Z,21.21
2017-08-13T16:15:15.379Z,21.12
2017-08-13T16:17:44.416Z,21.10
2017-08-13T16:20:13.524Z,21.00
2017-08-13T16:22:42.629Z,20.97
2017-08-13T16:25:11.986Z,20.93
2017-08-13T16:27:41.039Z,20.90
2017-08-13T16:30:10.083Z,20.90
2017-08-13T16:32:39.164Z,20.85
2017-08-13T16:35:08.215Z,20.82
2017-08-13T16:37:37.303Z,20.83
2017-08-13T16:40:06.405Z,20.80
2017-08-13T16:42:35.462Z,20.83
2017-08-13T16:45:04.530Z,20.78
2017-08-13T16:47:33.583Z,20.75
2017-08-13T16:50:02.681Z,20.77
2017-08-13T16:52:31.708Z,20.70
2017-08-13T16:55:00.743Z,20.66
2017-08-13T16:57:29.853Z,20.63
2017-08-13T16:59:58.910Z,20.61
2017-08-13T17:02:28.185Z,20.61
2017-08-13T17:04:57.215Z,20.63
2017-08-13T17:07:26.284Z,20.67
2017-08-13T17:09:55.353Z,20.69
2017-08-13T17:12:24.421Z,20.71
2017-08-13T17:14:53.476Z,20.73
2017-08-13T17:17:22.512Z,20.75
2017-08-13T17:19:51.588Z,20.78
2017-08-13T17:22:20.657Z,20.77
2017-08-13T17:24:49.733Z,20.77
2017-08-13T17:27:18.787Z,20.79
2017-08-13T17:29:47.832Z,20.85
2017-08-13T17:32:16.923Z,20.87
2017-08-13T17:34:45.983Z,20.85
2017-08-13T17:37:15.072Z,20.83
2017-08-13T17:39:44.095Z,20.81
2017-08-13T17:42:13.184Z,20.79
2017-08-13T17:44:42.236Z,20.67
2017-08-13T17:47:11.285Z,20.62
2017-08-13T17:49:40.364Z,20.64
2017-08-13T17:52:09.416Z,20.68
2017-08-13T17:54:38.493Z,20.67
2017-08-13T17:57:07.531Z,20.59
2017-08-13T17:59:36.595Z,20.54
2017-08-13T18:02:05.665Z,20.57
2017-08-13T18:04:34.762Z,20.58
2017-08-13T18:07:03.825Z,20.60
2017-08-13T18:09:32.867Z,20.64
2017-08-13T18:12:01.957Z,20.67
2017-08-13T18:14:30.994Z,20.68
2017-08-13T18:17:00.117Z,20.73
2017-08-13T18:19:29.198Z,20.74
2017-08-13T18:21:58.268Z,20.79
2017-08-13T18:24:27.316Z,20.73
2017-08-13T18:26:56.378Z,20.60
2017-08-13T18:29:25.677Z,20.50
2017-08-13T18:31:54.968Z,20.44
2017-08-13T18:34:24.014Z,20.31
2017-08-13T18:36:53.085Z,20.29
2017-08-13T18:39:22.143Z,20.17
2017-08-13T18:41:51.226Z,20.10
2017-08-13T18:44:20.267Z,19.99
2017-08-13T18:46:49.368Z,19.94
2017-08-13T18:49:18.432Z,19.94
2017-08-13T18:51:47.494Z,19.93
2017-08-13T18:54:16.682Z,19.97
2017-08-13T18:56:45.875Z,19.96
2017-08-13T18:59:15.054Z,19.95
2017-08-13T19:01:44.299Z,19.92
2017-08-13T19:04:13.532Z,19.89
2017-08-13T19:06:42.786Z,19.79
2017-08-13T19:09:12.096Z,19.76
2017-08-13T19:11:41.425Z,19.74
2017-08-13T19:14:10.783Z,19.69
2017-08-13T19:16:40.008Z,19.67
2017-08-13T19:19:09.400Z,19.66
2017-08-13T19:21:38.819Z,19.63
2017-08-13T19:24:08.246Z,19.59
2017-08-13T19:26:37.623Z,19.55
2017-08-13T19:29:07.087Z,19.53
2017-08-13T19:31:36.487Z,19.43
2017-08-13T19:34:06.040Z,19.37
2017-08-13T19:36:35.414Z,19.29
2017-08-13T19:39:04.862Z,19.24
2017-08-13T19:41:35.242Z,19.20
2017-08-13T19:44:04.633Z,19.10
2017-08-13T19:46:34.038Z,19.04
2017-08-13T19:49:03.524Z,18.96
2017-08-13T19:51:32.908Z,18.91
2017-08-13T19:54:02.330Z,18.89
2017-08-13T19:56:31.809Z,18.88
2017-08-13T19:59:01.235Z,18.87
2017-08-13T20:01:30.641Z,18.87
2017-08-13T20:04:00.112Z,18.87
2017-08-13T20:06:29.630Z,18.85
2017-08-13T20:08:59.053Z,18.85
2017-08-13T20:11:28.398Z,18.80
2017-08-13T20:13:57.772Z,18.75
2017-08-13T20:16:26.915Z,18.71
2017-08-13T20:18:56.103Z,18.70
2017-08-13T20:21:25.199Z,18.66
2017-08-13T20:23:54.279Z,18.61
2017-08-13T20:26:23.350Z,18.52
2017-08-13T20:28:52.433Z,18.44
2017-08-13T20:31:21.469Z,18.37
2017-08-13T20:33:50.541Z,18.29
2017-08-13T20:36:19.585Z,18.23
2017-08-13T20:38:48.636Z,18.17
2017-08-13T20:41:17.736Z,18.16
2017-08-13T20:43:46.796Z,18.13
2017-08-13T20:46:15.878Z,18.10
2017-08-13T20:48:44.946Z,18.07
2017-08-13T20:51:14.018Z,18.05
2017-08-13T20:53:44.216Z,18.04
2017-08-13T20:56:13.281Z,18.02
2017-08-13T20:58:42.362Z,18.02
2017-08-13T21:01:11.438Z,18.00
2017-08-13T21:03:40.511Z,17.96
2017-08-13T21:06:09.680Z,17.91
2017-08-13T21:08:38.725Z,17.85
2017-08-13T21:11:07.802Z,17.81
2017-08-13T21:13:36.883Z,17.78
2017-08-13T21:16:05.982Z,17.72
2017-08-13T21:18:35.041Z,17.68
2017-08-13T21:21:04.264Z,17.64
2017-08-13T21:23:33.323Z,17.64
2017-08-13T21:26:02.394Z,17.64
2017-08-13T21:28:31.484Z,17.58
2017-08-13T21:31:00.557Z,17.53
2017-08-13T21:33:29.626Z,17.46
2017-08-13T21:35:58.691Z,17.40
2017-08-13T21:38:27.755Z,17.35
2017-08-13T21:40:56.826Z,17.29
2017-08-13T21:43:25.894Z,17.28
2017-08-13T21:45:54.980Z,17.26
2017-08-13T21:48:24.049Z,17.24
2017-08-13T21:50:53.138Z,17.21
2017-08-13T21:53:22.244Z,17.22
2017-08-13T21:55:51.312Z,17.20
2017-08-13T21:58:20.390Z,17.18
2017-08-13T22:00:49.473Z,17.18
2017-08-13T22:03:18.519Z,17.15
2017-08-13T22:05:47.580Z,17.12
2017-08-13T22:08:16.657Z,17.11
2017-08-13T22:10:45.735Z,17.09
2017-08-13T22:13:14.807Z,17.07
2017-08-13T22:15:43.920Z,17.04
2017-08-13T22:18:12.976Z,17.02
2017-08-13T22:20:42.024Z,16.93
2017-08-13T22:23:11.148Z,16.89
2017-08-13T22:25:40.200Z,16.89
2017-08-13T22:28:09.259Z,16.88
2017-08-13T22:30:38.315Z,16.84
2017-08-13T22:33:07.406Z,16.85
2017-08-13T22:35:36.473Z,16.78
2017-08-13T22:38:05.523Z,16.74
2017-08-13T22:40:34.619Z,16.71
2017-08-13T22:43:03.907Z,16.70
2017-08-13T22:45:33.563Z,16.63
2017-08-13T22:48:02.630Z,16.60
2017-08-13T22:50:31.684Z,16.53
2017-08-13T22:53:02.431Z,16.45
2017-08-13T22:55:34.444Z,16.45
2017-08-13T22:58:03.508Z,16.44
2017-08-13T23:00:32.595Z,16.44
2017-08-13T23:03:01.688Z,16.41
2017-08-13T23:05:30.798Z,16.38
2017-08-13T23:08:00.039Z,16.35
2017-08-13T23:10:29.155Z,16.32
2017-08-13T23:12:58.227Z,16.30
2017-08-13T23:15:27.287Z,16.30
2017-08-13T23:17:56.355Z,16.26
2017-08-13T23:20:25.447Z,16.24
2017-08-13T23:22:54.529Z,16.23
2017-08-13T23:25:24.484Z,16.23
2017-08-13T23:27:53.553Z,16.21
2017-08-13T23:30:22.622Z,16.18
2017-08-13T23:32:51.678Z,16.13
2017-08-13T23:35:21.117Z,16.09
2017-08-13T23:37:50.205Z,16.08
2017-08-13T23:40:19.387Z,16.06
2017-08-13T23:42:48.487Z,16.06
2017-08-13T23:45:17.607Z,16.06
2017-08-13T23:47:46.681Z,16.07
2017-08-13T23:50:15.873Z,16.05
2017-08-13T23:52:44.961Z,16.03
2017-08-13T23:55:14.020Z,16.00
2017-08-13T23:57:43.102Z,15.97
